createdAt,value
2022-10-31T00:00:16.725Z,53.50
2022-10-31T00:01:16.659Z,52.05
2022-10-31T00:02:16.781Z,51.56
2022-10-31T00:03:16.665Z,51.56
2022-10-31T00:04:16.620Z,51.56
2022-10-31T00:05:17.632Z,51.72
2022-10-31T00:06:16.612Z,52.53
2022-10-31T00:07:16.614Z,51.40
2022-10-31T00:08:16.628Z,51.88
2022-10-31T00:09:16.583Z,51.56
2022-10-31T00:10:16.575Z,51.72
2022-10-31T00:11:16.588Z,52.53
2022-10-31T00:12:16.605Z,52.21
2022-10-31T00:13:16.720Z,53.01
2022-10-31T00:14:16.570Z,53.98
2022-10-31T00:15:16.572Z,52.69
2022-10-31T00:16:16.543Z,52.37
2022-10-31T00:17:16.581Z,51.56
2022-10-31T00:18:16.538Z,51.56
2022-10-31T00:19:16.534Z,51.88
2022-10-31T00:20:16.516Z,51.72
2022-10-31T00:21:16.509Z,53.50
2022-10-31T00:22:16.526Z,53.01
2022-10-31T00:23:16.532Z,52.53
2022-10-31T00:24:16.524Z,51.72
2022-10-31T00:25:16.531Z,52.53
2022-10-31T00:26:16.481Z,53.01
2022-10-31T00:27:16.483Z,52.53
2022-10-31T00:28:16.576Z,52.69
2022-10-31T00:29:16.499Z,52.21
2022-10-31T00:30:16.480Z,52.69
2022-10-31T00:31:16.461Z,52.69
2022-10-31T00:32:16.478Z,51.88
2022-10-31T00:33:16.422Z,52.21
2022-10-31T00:34:16.451Z,51.88
2022-10-31T00:35:16.452Z,52.05
2022-10-31T00:36:17.435Z,52.69
2022-10-31T00:37:16.415Z,52.21
2022-10-31T00:38:16.495Z,52.69
2022-10-31T00:39:16.410Z,52.53
2022-10-31T00:40:16.395Z,51.88
2022-10-31T00:41:16.439Z,51.56
2022-10-31T00:42:16.400Z,51.88
2022-10-31T00:43:16.421Z,51.88
2022-10-31T00:44:16.400Z,52.37
2022-10-31T00:45:16.423Z,51.72
2022-10-31T00:46:16.380Z,51.88
2022-10-31T00:47:16.353Z,51.72
2022-10-31T00:48:16.350Z,52.69
2022-10-31T00:49:17.238Z,52.37
2022-10-31T00:50:16.348Z,52.05
2022-10-31T00:51:16.390Z,51.72
2022-10-31T00:52:16.323Z,51.72
2022-10-31T00:53:16.318Z,52.21
2022-10-31T00:54:16.420Z,51.40
2022-10-31T00:55:16.312Z,51.72
2022-10-31T00:56:16.385Z,52.21
2022-10-31T00:57:16.329Z,52.05
2022-10-31T00:58:16.307Z,52.21
2022-10-31T00:59:16.292Z,52.05
2022-10-31T01:00:16.298Z,52.85
2022-10-31T01:01:16.362Z,52.69
2022-10-31T01:02:16.472Z,51.88
2022-10-31T01:03:16.279Z,51.72
2022-10-31T01:04:16.262Z,52.85
2022-10-31T01:05:16.243Z,52.37
2022-10-31T01:06:16.238Z,51.24
2022-10-31T01:07:16.263Z,52.69
2022-10-31T01:08:16.217Z,53.17
2022-10-31T01:09:16.222Z,53.33
2022-10-31T01:10:16.217Z,52.69
2022-10-31T01:11:16.225Z,55.59
2022-10-31T01:12:16.204Z,51.88
2022-10-31T01:13:16.233Z,51.88
2022-10-31T01:14:16.741Z,52.21
2022-10-31T01:15:16.195Z,51.88
2022-10-31T01:16:16.207Z,51.88
2022-10-31T01:17:16.158Z,51.40
2022-10-31T01:18:16.166Z,52.21
2022-10-31T01:19:16.229Z,51.88
2022-10-31T01:20:16.160Z,51.72
2022-10-31T01:21:16.142Z,51.88
2022-10-31T01:22:16.148Z,51.40
2022-10-31T01:23:16.130Z,53.33
2022-10-31T01:24:16.139Z,52.37
2022-10-31T01:25:16.107Z,52.37
2022-10-31T01:26:16.906Z,52.21
2022-10-31T01:27:16.107Z,53.98
2022-10-31T01:28:16.168Z,54.30
2022-10-31T01:29:16.094Z,54.30
2022-10-31T01:30:16.091Z,54.95
2022-10-31T01:31:16.119Z,54.95
2022-10-31T01:32:16.095Z,53.82
2022-10-31T01:33:17.070Z,55.11
2022-10-31T01:34:16.714Z,52.69
2022-10-31T01:35:16.065Z,52.85
2022-10-31T01:36:16.039Z,53.01
2022-10-31T01:37:16.055Z,52.69
2022-10-31T01:38:16.039Z,52.69
2022-10-31T01:39:16.076Z,52.69
2022-10-31T01:40:16.018Z,52.37
2022-10-31T01:41:16.003Z,52.53
2022-10-31T01:42:16.025Z,52.37
2022-10-31T01:43:16.046Z,51.40
2022-10-31T01:44:16.021Z,52.05
2022-10-31T01:45:16.002Z,52.05
2022-10-31T01:46:15.999Z,52.37
2022-10-31T01:47:16.034Z,52.21
2022-10-31T01:48:15.972Z,52.37
2022-10-31T01:49:15.995Z,52.05
2022-10-31T01:50:15.979Z,52.21
2022-10-31T01:51:15.959Z,51.72
2022-10-31T01:52:15.953Z,51.72
2022-10-31T01:53:15.946Z,51.72
2022-10-31T01:54:15.936Z,51.24
2022-10-31T01:55:15.935Z,52.37
2022-10-31T01:56:15.929Z,52.05
2022-10-31T01:57:15.954Z,54.30
2022-10-31T01:58:15.972Z,53.82
2022-10-31T01:59:15.903Z,53.17
2022-10-31T02:00:15.923Z,52.37
2022-10-31T02:01:16.108Z,52.85
2022-10-31T02:02:16.036Z,53.66
2022-10-31T02:03:15.905Z,53.01
2022-10-31T02:04:15.893Z,52.85
2022-10-31T02:05:15.875Z,51.88
2022-10-31T02:06:15.863Z,52.05
2022-10-31T02:07:16.650Z,52.21
2022-10-31T02:08:15.879Z,52.53
2022-10-31T02:09:15.842Z,54.62
2022-10-31T02:10:15.853Z,55.27
2022-10-31T02:11:15.858Z,53.98
2022-10-31T02:12:15.831Z,54.46
2022-10-31T02:13:15.954Z,55.27
2022-10-31T02:14:15.828Z,55.27
2022-10-31T02:15:15.820Z,54.14
2022-10-31T02:16:15.826Z,55.11
2022-10-31T02:17:15.839Z,54.46
2022-10-31T02:18:15.814Z,55.59
2022-10-31T02:19:15.794Z,54.79
2022-10-31T02:20:15.827Z,55.27
2022-10-31T02:21:15.787Z,54.79
2022-10-31T02:22:15.782Z,55.91
2022-10-31T02:23:15.847Z,54.95
2022-10-31T02:24:15.766Z,55.91
2022-10-31T02:25:15.764Z,54.62
2022-10-31T02:26:15.758Z,56.07
2022-10-31T02:27:15.767Z,55.43
2022-10-31T02:28:15.877Z,57.69
2022-10-31T02:29:15.754Z,55.91
2022-10-31T02:30:15.750Z,56.72
2022-10-31T02:31:15.747Z,55.43
2022-10-31T02:32:15.725Z,54.30
2022-10-31T02:33:15.746Z,55.59
2022-10-31T02:34:15.719Z,53.82
2022-10-31T02:35:15.699Z,55.91
2022-10-31T02:36:15.695Z,53.17
2022-10-31T02:37:15.690Z,56.40
2022-10-31T02:38:15.700Z,53.82
2022-10-31T02:39:15.686Z,55.59
2022-10-31T02:40:15.699Z,52.21
2022-10-31T02:41:15.667Z,55.91
2022-10-31T02:42:15.663Z,54.46
2022-10-31T02:43:15.686Z,55.27
2022-10-31T02:44:15.639Z,51.88
2022-10-31T02:45:15.686Z,55.11
2022-10-31T02:46:15.626Z,56.24
2022-10-31T02:47:15.636Z,57.20
2022-10-31T02:48:15.635Z,56.56
2022-10-31T02:49:15.634Z,55.43
2022-10-31T02:50:15.611Z,56.24
2022-10-31T02:51:15.623Z,54.46
2022-10-31T02:52:15.615Z,56.07
2022-10-31T02:53:15.798Z,53.50
2022-10-31T02:54:15.595Z,55.91
2022-10-31T02:55:15.603Z,55.27
2022-10-31T02:56:15.598Z,55.27
2022-10-31T02:57:15.615Z,56.40
2022-10-31T02:58:15.660Z,52.21
2022-10-31T02:59:15.578Z,56.72
2022-10-31T03:00:15.550Z,56.40
2022-10-31T03:01:15.684Z,55.75
2022-10-31T03:02:15.724Z,56.88
2022-10-31T03:03:15.547Z,57.04
2022-10-31T03:04:16.202Z,56.88
2022-10-31T03:05:15.554Z,58.65
2022-10-31T03:06:15.545Z,58.01
2022-10-31T03:07:15.570Z,56.88
2022-10-31T03:08:15.515Z,57.85
2022-10-31T03:09:15.510Z,56.88
2022-10-31T03:10:15.501Z,57.69
2022-10-31T03:11:15.497Z,58.17
2022-10-31T03:12:15.495Z,58.65
2022-10-31T03:13:15.563Z,58.49
2022-10-31T03:14:15.495Z,57.85
2022-10-31T03:15:15.484Z,57.20
2022-10-31T03:16:15.460Z,57.04
2022-10-31T03:17:15.472Z,53.33
2022-10-31T03:18:15.480Z,57.04
2022-10-31T03:19:15.475Z,57.20
2022-10-31T03:20:15.457Z,51.72
2022-10-31T03:21:15.475Z,56.07
2022-10-31T03:22:15.458Z,56.72
2022-10-31T03:23:15.449Z,55.91
2022-10-31T03:24:15.442Z,57.04
2022-10-31T03:25:15.472Z,57.69
2022-10-31T03:26:15.476Z,55.91
2022-10-31T03:27:15.412Z,58.49
2022-10-31T03:28:15.441Z,56.56
2022-10-31T03:29:15.408Z,56.72
2022-10-31T03:30:15.411Z,56.40
2022-10-31T03:31:15.391Z,56.24
2022-10-31T03:32:15.381Z,54.14
2022-10-31T03:33:15.371Z,56.88
2022-10-31T03:34:15.395Z,56.72
2022-10-31T03:35:15.369Z,53.98
2022-10-31T03:36:15.358Z,57.36
2022-10-31T03:37:15.402Z,57.36
2022-10-31T03:38:15.340Z,58.01
2022-10-31T03:39:15.419Z,54.30
2022-10-31T03:40:15.342Z,61.23
2022-10-31T03:41:15.345Z,58.17
2022-10-31T03:42:15.324Z,58.81
2022-10-31T03:43:15.372Z,56.40
2022-10-31T03:44:15.335Z,58.01
2022-10-31T03:45:15.301Z,58.33
2022-10-31T03:46:15.306Z,57.20
2022-10-31T03:47:15.346Z,56.88
2022-10-31T03:48:15.301Z,57.52
2022-10-31T03:49:15.280Z,57.85
2022-10-31T03:50:15.295Z,57.52
2022-10-31T03:51:15.272Z,57.52
2022-10-31T03:52:15.264Z,58.33
2022-10-31T03:53:15.263Z,58.33
2022-10-31T03:54:15.258Z,57.85
2022-10-31T03:55:15.260Z,57.52
2022-10-31T03:56:15.246Z,59.46
2022-10-31T03:57:15.305Z,58.49
2022-10-31T03:58:15.264Z,58.01
2022-10-31T03:59:15.224Z,58.49
2022-10-31T04:00:15.224Z,58.01
2022-10-31T04:01:15.431Z,58.65
2022-10-31T04:02:15.283Z,58.49
2022-10-31T04:03:15.204Z,57.69
2022-10-31T04:04:15.202Z,57.52
2022-10-31T04:05:15.246Z,58.65
2022-10-31T04:06:15.185Z,59.14
2022-10-31T04:07:15.163Z,58.01
2022-10-31T04:08:15.183Z,58.33
2022-10-31T04:09:15.169Z,59.46
2022-10-31T04:10:15.255Z,59.30
2022-10-31T04:11:16.171Z,57.69
2022-10-31T04:12:15.161Z,58.81
2022-10-31T04:13:15.204Z,58.97
2022-10-31T04:14:15.150Z,59.62
2022-10-31T04:15:15.125Z,58.81
2022-10-31T04:16:17.150Z,58.01
2022-10-31T04:17:15.349Z,57.36
2022-10-31T04:18:15.118Z,59.46
2022-10-31T04:19:15.163Z,58.49
2022-10-31T04:20:16.139Z,59.30
2022-10-31T04:21:15.103Z,59.78
2022-10-31T04:22:15.127Z,59.46
2022-10-31T04:23:15.074Z,59.46
2022-10-31T04:24:15.091Z,61.07
2022-10-31T04:25:15.071Z,59.14
2022-10-31T04:26:15.079Z,58.33
2022-10-31T04:27:15.694Z,60.26
2022-10-31T04:28:15.727Z,60.59
2022-10-31T04:29:15.074Z,58.81
2022-10-31T04:30:15.700Z,58.49
2022-10-31T04:31:15.069Z,60.10
2022-10-31T04:32:15.055Z,59.14
2022-10-31T04:33:15.040Z,62.68
2022-10-31T04:34:15.159Z,62.04
2022-10-31T04:35:15.094Z,60.10
2022-10-31T04:36:15.029Z,60.10
2022-10-31T04:37:15.008Z,59.30
2022-10-31T04:38:15.006Z,60.10
2022-10-31T04:39:15.043Z,62.84
2022-10-31T04:40:14.999Z,59.30
2022-10-31T04:41:15.002Z,59.14
2022-10-31T04:42:15.006Z,59.78
2022-10-31T04:43:15.043Z,59.14
2022-10-31T04:44:14.977Z,59.46
2022-10-31T04:45:18.375Z,59.30
2022-10-31T04:46:16.702Z,58.81
2022-10-31T04:47:15.122Z,59.78
2022-10-31T04:48:14.965Z,58.97
2022-10-31T04:49:14.965Z,59.78
2022-10-31T04:50:14.977Z,62.04
2022-10-31T04:51:14.945Z,60.10
2022-10-31T04:52:17.233Z,59.78
2022-10-31T04:53:14.942Z,60.75
2022-10-31T04:54:14.925Z,58.65
2022-10-31T04:55:14.922Z,59.94
2022-10-31T04:56:14.913Z,65.26
2022-10-31T04:57:14.900Z,63.49
2022-10-31T04:59:14.927Z,61.87
2022-10-31T05:00:14.900Z,58.65
2022-10-31T05:01:15.004Z,59.94
2022-10-31T05:02:14.969Z,62.68
2022-10-31T05:03:14.859Z,58.81
2022-10-31T05:04:14.880Z,58.81
2022-10-31T05:05:14.852Z,58.01
2022-10-31T05:06:14.851Z,58.01
2022-10-31T05:07:14.879Z,60.91
2022-10-31T05:08:14.848Z,58.81
2022-10-31T05:09:14.841Z,60.75
2022-10-31T05:10:14.824Z,59.78
2022-10-31T05:11:14.829Z,60.42
2022-10-31T05:12:14.811Z,58.49
2022-10-31T05:13:14.862Z,58.97
2022-10-31T05:14:14.832Z,62.84
2022-10-31T05:15:14.831Z,61.87
2022-10-31T05:16:14.780Z,63.00
2022-10-31T05:17:14.775Z,62.20
2022-10-31T05:18:14.787Z,63.00
2022-10-31T05:19:14.791Z,60.91
2022-10-31T05:20:14.779Z,58.97
2022-10-31T05:21:14.752Z,64.94
2022-10-31T05:22:14.757Z,59.62
2022-10-31T05:23:14.754Z,60.26
2022-10-31T05:24:14.726Z,59.30
2022-10-31T05:25:14.783Z,60.59
2022-10-31T05:26:14.732Z,62.68
2022-10-31T05:27:14.723Z,61.07
2022-10-31T05:28:14.735Z,60.10
2022-10-31T05:29:14.716Z,59.78
2022-10-31T05:30:14.712Z,60.26
2022-10-31T05:31:14.701Z,63.33
2022-10-31T05:32:14.681Z,66.39
2022-10-31T05:33:14.682Z,60.10
2022-10-31T05:34:14.693Z,62.68
2022-10-31T05:35:14.681Z,64.29
2022-10-31T05:36:14.712Z,60.42
2022-10-31T05:37:14.662Z,65.42
2022-10-31T05:38:14.714Z,59.94
2022-10-31T05:39:14.646Z,61.71
2022-10-31T05:40:14.641Z,65.90
2022-10-31T05:41:14.652Z,66.23
2022-10-31T05:42:15.223Z,65.10
2022-10-31T05:43:14.694Z,61.07
2022-10-31T05:44:14.633Z,62.84
2022-10-31T05:45:14.619Z,65.42
2022-10-31T05:46:14.669Z,63.00
2022-10-31T05:47:14.605Z,63.00
2022-10-31T05:48:14.613Z,63.33
2022-10-31T05:49:14.608Z,67.84
2022-10-31T05:50:15.223Z,61.55
2022-10-31T05:51:14.564Z,66.39
2022-10-31T05:52:14.584Z,64.45
2022-10-31T05:53:14.580Z,64.45
2022-10-31T05:54:16.002Z,68.96
2022-10-31T05:55:15.560Z,67.68
2022-10-31T05:56:14.560Z,62.52
2022-10-31T05:57:14.571Z,60.26
2022-10-31T05:58:14.555Z,61.39
2022-10-31T05:59:14.543Z,61.55
2022-10-31T06:00:14.679Z,64.78
2022-10-31T06:01:14.641Z,64.94
2022-10-31T06:02:14.508Z,59.94
2022-10-31T06:03:14.535Z,62.52
2022-10-31T06:04:14.534Z,63.65
2022-10-31T06:05:14.631Z,59.94
2022-10-31T06:06:14.504Z,64.13
2022-10-31T06:07:14.476Z,61.23
2022-10-31T06:08:14.776Z,67.19
2022-10-31T06:09:14.478Z,68.96
2022-10-31T06:10:14.455Z,62.84
2022-10-31T06:11:14.481Z,67.68
2022-10-31T06:12:14.478Z,67.19
2022-10-31T06:13:15.188Z,67.03
2022-10-31T06:14:14.436Z,65.90
2022-10-31T06:15:14.440Z,64.45
2022-10-31T06:16:14.429Z,67.51
2022-10-31T06:17:14.431Z,63.16
2022-10-31T06:18:14.434Z,63.81
2022-10-31T06:19:14.468Z,68.96
2022-10-31T06:20:14.486Z,61.55
2022-10-31T06:21:17.884Z,65.74
2022-10-31T06:22:14.412Z,67.84
2022-10-31T06:23:14.504Z,61.39
2022-10-31T06:24:14.388Z,61.71
2022-10-31T06:25:14.393Z,66.71
2022-10-31T06:26:14.404Z,61.87
2022-10-31T06:27:14.403Z,65.26
2022-10-31T06:28:15.380Z,68.16
2022-10-31T06:29:14.383Z,67.03
2022-10-31T06:30:14.360Z,68.80
2022-10-31T06:31:14.399Z,65.42
2022-10-31T06:32:14.345Z,65.58
2022-10-31T06:33:14.376Z,67.03
2022-10-31T06:34:14.331Z,64.78
2022-10-31T06:35:14.319Z,63.16
2022-10-31T06:36:14.373Z,66.06
2022-10-31T06:37:14.327Z,68.80
2022-10-31T06:38:14.337Z,60.59
2022-10-31T06:39:14.322Z,61.07
2022-10-31T06:40:14.315Z,62.20
2022-10-31T06:41:14.291Z,61.39
2022-10-31T06:42:14.282Z,63.00
2022-10-31T06:43:14.357Z,66.23
2022-10-31T06:44:14.322Z,64.61
2022-10-31T06:45:14.273Z,64.29
2022-10-31T06:46:14.279Z,63.16
2022-10-31T06:47:14.326Z,63.65
2022-10-31T06:48:18.469Z,73.48
2022-10-31T06:49:15.270Z,68.80
2022-10-31T06:50:14.242Z,68.32
2022-10-31T06:51:14.237Z,67.03
2022-10-31T06:52:14.233Z,61.07
2022-10-31T06:53:14.236Z,64.78
2022-10-31T06:54:14.237Z,67.19
2022-10-31T06:55:14.210Z,65.42
2022-10-31T06:56:14.220Z,64.78
2022-10-31T06:57:14.196Z,63.49
2022-10-31T06:58:14.201Z,68.64
2022-10-31T06:59:14.201Z,60.91
2022-10-31T07:00:14.197Z,66.55
2022-10-31T07:01:14.331Z,64.13
2022-10-31T07:02:14.312Z,64.94
2022-10-31T07:03:14.173Z,62.20
2022-10-31T07:04:14.212Z,64.61
2022-10-31T07:05:14.154Z,66.39
2022-10-31T07:06:14.187Z,65.42
2022-10-31T07:07:14.172Z,64.45
2022-10-31T07:08:14.137Z,62.52
2022-10-31T07:09:14.196Z,66.39
2022-10-31T07:10:14.205Z,66.71
2022-10-31T07:11:14.127Z,59.94
2022-10-31T07:12:14.124Z,64.61
2022-10-31T07:13:14.120Z,64.29
2022-10-31T07:14:14.140Z,61.07
2022-10-31T07:15:14.108Z,63.00
2022-10-31T07:16:14.168Z,70.74
2022-10-31T07:17:14.160Z,64.29
2022-10-31T07:18:14.124Z,66.87
2022-10-31T07:19:14.068Z,66.39
2022-10-31T07:20:14.085Z,65.26
2022-10-31T07:21:14.076Z,68.64
2022-10-31T07:22:14.060Z,63.81
2022-10-31T07:23:14.051Z,64.61
2022-10-31T07:24:14.052Z,61.39
2022-10-31T07:25:14.051Z,65.42
2022-10-31T07:26:14.035Z,65.90
2022-10-31T07:27:14.024Z,61.55
2022-10-31T07:28:14.029Z,67.03
2022-10-31T07:29:14.807Z,71.22
2022-10-31T07:30:14.066Z,63.97
2022-10-31T07:31:14.785Z,60.91
2022-10-31T07:32:13.996Z,62.04
2022-10-31T07:33:14.013Z,62.68
2022-10-31T07:34:14.001Z,65.26
2022-10-31T07:35:14.726Z,64.78
2022-10-31T07:36:13.973Z,61.71
2022-10-31T07:37:13.948Z,61.23
2022-10-31T07:38:14.010Z,67.19
2022-10-31T07:39:13.932Z,64.13
2022-10-31T07:40:14.031Z,62.52
2022-10-31T07:41:13.953Z,65.26
2022-10-31T07:42:13.924Z,68.32
2022-10-31T07:43:14.758Z,60.59
2022-10-31T07:44:15.520Z,62.04
2022-10-31T07:45:13.974Z,67.68
2022-10-31T07:46:13.951Z,62.84
2022-10-31T07:47:13.935Z,60.59
2022-10-31T07:48:13.980Z,63.16
2022-10-31T07:49:13.917Z,63.65
2022-10-31T07:50:13.967Z,62.04
2022-10-31T07:51:14.717Z,59.46
2022-10-31T07:52:13.880Z,69.13
2022-10-31T07:53:13.866Z,65.42
2022-10-31T07:54:13.846Z,64.94
2022-10-31T07:55:13.849Z,64.13
2022-10-31T07:56:13.833Z,61.07
2022-10-31T07:57:14.599Z,68.64
2022-10-31T07:58:13.813Z,64.13
2022-10-31T07:59:13.824Z,63.33
2022-10-31T08:00:13.800Z,65.42
2022-10-31T08:01:13.813Z,61.07
2022-10-31T08:02:13.802Z,60.59
2022-10-31T08:03:13.804Z,64.94
2022-10-31T08:04:13.809Z,61.39
2022-10-31T08:05:13.768Z,58.49
2022-10-31T08:06:13.781Z,58.49
2022-10-31T08:07:13.774Z,68.48
2022-10-31T08:08:13.787Z,60.26
2022-10-31T08:09:13.744Z,60.42
2022-10-31T08:10:14.744Z,62.68
2022-10-31T08:11:13.741Z,65.58
2022-10-31T08:12:13.734Z,67.84
2022-10-31T08:13:13.749Z,63.16
2022-10-31T08:14:13.729Z,60.10
2022-10-31T08:15:13.780Z,57.04
2022-10-31T08:16:15.762Z,59.94
2022-10-31T08:17:13.692Z,59.78
2022-10-31T08:18:13.964Z,67.51
2022-10-31T08:19:13.692Z,57.36
2022-10-31T08:20:13.732Z,58.01
2022-10-31T08:21:13.672Z,63.97
2022-10-31T08:22:13.720Z,68.32
2022-10-31T08:23:15.705Z,63.97
2022-10-31T08:24:14.625Z,64.13
2022-10-31T08:25:14.585Z,64.94
2022-10-31T08:26:13.646Z,61.87
2022-10-31T08:27:13.633Z,65.58
2022-10-31T08:28:13.624Z,65.58
2022-10-31T08:29:13.632Z,59.30
2022-10-31T08:30:13.641Z,58.81
2022-10-31T08:31:13.623Z,62.68
2022-10-31T08:32:13.924Z,58.33
2022-10-31T08:33:13.720Z,65.90
2022-10-31T08:34:13.698Z,65.42
2022-10-31T08:35:16.483Z,66.39
2022-10-31T08:36:13.579Z,57.36
2022-10-31T08:37:13.577Z,63.16
2022-10-31T08:38:13.581Z,54.95
2022-10-31T08:39:13.602Z,58.97
2022-10-31T08:40:13.572Z,64.94
2022-10-31T08:41:13.564Z,57.20
2022-10-31T08:42:14.578Z,57.69
2022-10-31T08:43:13.584Z,60.42
2022-10-31T08:44:13.680Z,64.61
2022-10-31T08:45:13.535Z,67.03
2022-10-31T08:46:13.526Z,65.10
2022-10-31T08:47:13.530Z,66.23
2022-10-31T08:48:13.526Z,59.78
2022-10-31T08:49:13.529Z,56.72
2022-10-31T08:50:14.203Z,65.42
2022-10-31T08:51:13.492Z,66.55
2022-10-31T08:52:14.572Z,64.78
2022-10-31T08:53:14.503Z,65.58
2022-10-31T08:54:13.483Z,60.59
2022-10-31T08:55:13.464Z,56.24
2022-10-31T08:56:13.500Z,55.91
2022-10-31T08:57:13.456Z,61.07
2022-10-31T08:58:13.506Z,63.00
2022-10-31T08:59:13.435Z,63.97
2022-10-31T09:00:13.455Z,65.58
2022-10-31T09:01:13.652Z,63.16
2022-10-31T09:02:13.568Z,62.20
2022-10-31T09:03:13.427Z,62.20
2022-10-31T09:04:13.403Z,53.50
2022-10-31T09:05:13.436Z,61.07
2022-10-31T09:06:13.514Z,62.20
2022-10-31T09:07:21.441Z,53.66
2022-10-31T09:08:16.869Z,59.78
2022-10-31T09:09:14.391Z,56.72
2022-10-31T09:10:13.386Z,53.82
2022-10-31T09:11:13.350Z,59.78
2022-10-31T09:12:13.383Z,51.72
2022-10-31T09:13:13.406Z,65.42
2022-10-31T09:14:13.346Z,57.52
2022-10-31T09:15:13.338Z,65.90
2022-10-31T09:16:13.350Z,57.20
2022-10-31T09:17:13.322Z,55.91
2022-10-31T09:18:13.315Z,67.03
2022-10-31T09:19:13.309Z,60.91
2022-10-31T09:20:13.298Z,58.65
2022-10-31T09:21:13.318Z,63.33
2022-10-31T09:22:13.290Z,59.46
2022-10-31T09:23:13.283Z,66.39
2022-10-31T09:24:13.281Z,65.10
2022-10-31T09:25:13.271Z,68.16
2022-10-31T09:26:13.282Z,66.39
2022-10-31T09:27:13.259Z,55.91
2022-10-31T09:28:13.263Z,59.14
2022-10-31T09:29:13.258Z,60.42
2022-10-31T09:30:13.243Z,59.62
2022-10-31T09:31:13.243Z,64.45
2022-10-31T09:32:13.247Z,54.95
2022-10-31T09:33:13.234Z,64.29
2022-10-31T09:34:14.241Z,63.16
2022-10-31T09:35:13.287Z,54.30
2022-10-31T09:36:13.209Z,52.37
2022-10-31T09:37:13.215Z,49.63
2022-10-31T09:38:13.209Z,67.19
2022-10-31T09:39:13.186Z,59.78
2022-10-31T09:40:13.346Z,59.30
2022-10-31T09:41:15.295Z,65.42
2022-10-31T09:42:13.186Z,55.91
2022-10-31T09:43:13.156Z,66.39
2022-10-31T09:44:13.166Z,62.84
2022-10-31T09:45:13.147Z,64.94
2022-10-31T09:46:13.148Z,58.33
2022-10-31T09:47:13.131Z,61.71
2022-10-31T09:48:13.186Z,64.94
2022-10-31T09:49:13.172Z,65.90
2022-10-31T09:50:13.130Z,54.14
2022-10-31T09:51:13.117Z,59.14
2022-10-31T09:52:13.668Z,67.84
2022-10-31T09:53:13.175Z,59.62
2022-10-31T09:54:13.103Z,59.46
2022-10-31T09:55:13.098Z,55.43
2022-10-31T09:56:13.767Z,64.45
2022-10-31T09:57:13.091Z,60.42
2022-10-31T09:58:14.039Z,61.39
2022-10-31T09:59:13.066Z,59.94
2022-10-31T10:00:13.061Z,62.04
2022-10-31T10:01:13.192Z,60.75
2022-10-31T10:02:13.096Z,61.55
2022-10-31T10:03:13.058Z,58.33
2022-10-31T10:04:14.668Z,62.68
2022-10-31T10:05:15.045Z,65.10
2022-10-31T10:06:14.036Z,67.68
2022-10-31T10:07:13.047Z,54.95
2022-10-31T10:08:13.020Z,58.17
2022-10-31T10:09:13.108Z,65.42
2022-10-31T10:10:13.014Z,62.68
2022-10-31T10:11:13.001Z,63.65
2022-10-31T10:12:13.071Z,64.61
2022-10-31T10:13:13.365Z,61.07
2022-10-31T10:14:12.981Z,65.58
2022-10-31T10:15:13.008Z,68.48
2022-10-31T10:16:12.988Z,53.01
2022-10-31T10:17:12.991Z,61.07
2022-10-31T10:18:12.952Z,54.95
2022-10-31T10:19:13.092Z,56.07
2022-10-31T10:20:12.945Z,66.55
2022-10-31T10:21:13.107Z,64.94
2022-10-31T10:22:12.937Z,51.24
2022-10-31T10:23:13.955Z,57.52
2022-10-31T10:24:12.985Z,63.16
2022-10-31T10:25:12.970Z,63.00
2022-10-31T10:26:13.778Z,65.74
2022-10-31T10:27:12.913Z,61.71
2022-10-31T10:28:12.921Z,62.20
2022-10-31T10:29:12.907Z,66.06
2022-10-31T10:30:12.894Z,54.79
2022-10-31T10:31:12.911Z,57.36
2022-10-31T10:32:12.925Z,54.79
2022-10-31T10:33:13.011Z,52.69
2022-10-31T10:34:12.871Z,49.47
2022-10-31T10:35:12.863Z,61.23
2022-10-31T10:36:12.907Z,57.69
2022-10-31T10:37:12.872Z,59.62
2022-10-31T10:38:12.847Z,56.72
2022-10-31T10:39:12.848Z,55.43
2022-10-31T10:40:12.839Z,54.62
2022-10-31T10:41:12.837Z,64.61
2022-10-31T10:42:12.850Z,63.00
2022-10-31T10:43:12.809Z,61.23
2022-10-31T10:44:12.811Z,56.07
2022-10-31T10:45:12.806Z,61.55
2022-10-31T10:46:12.812Z,43.67
2022-10-31T10:47:12.800Z,52.85
2022-10-31T10:48:12.812Z,58.65
2022-10-31T10:49:12.805Z,55.27
2022-10-31T10:50:12.769Z,53.50
2022-10-31T10:51:25.559Z,57.36
2022-10-31T10:53:14.752Z,68.32
2022-10-31T10:54:12.772Z,60.10
2022-10-31T10:55:12.823Z,66.06
2022-10-31T10:56:12.876Z,63.00
2022-10-31T10:57:12.737Z,58.65
2022-10-31T10:58:12.724Z,54.30
2022-10-31T10:59:12.730Z,51.08
2022-10-31T11:00:12.726Z,56.07
2022-10-31T11:01:12.827Z,49.47
2022-10-31T11:02:12.701Z,51.88
2022-10-31T11:03:12.731Z,55.43
2022-10-31T11:04:12.717Z,54.95
2022-10-31T11:05:12.692Z,65.42
2022-10-31T11:06:12.701Z,56.24
2022-10-31T11:07:12.672Z,65.26
2022-10-31T11:08:12.672Z,63.16
2022-10-31T11:09:12.760Z,60.75
2022-10-31T11:10:12.656Z,56.88
2022-10-31T11:11:12.648Z,69.45
2022-10-31T11:12:12.640Z,59.94
2022-10-31T11:13:12.616Z,67.35
2022-10-31T11:14:12.617Z,59.30
2022-10-31T11:15:12.664Z,60.75
2022-10-31T11:16:12.657Z,53.82
2022-10-31T11:17:12.595Z,55.27
2022-10-31T11:18:12.609Z,59.46
2022-10-31T11:19:12.586Z,57.52
2022-10-31T11:20:16.314Z,55.59
2022-10-31T11:21:14.570Z,56.72
2022-10-31T11:22:12.569Z,63.65
2022-10-31T11:23:12.563Z,65.74
2022-10-31T11:24:12.561Z,58.01
2022-10-31T11:25:12.564Z,61.07
2022-10-31T11:26:12.558Z,61.39
2022-10-31T11:27:12.552Z,64.78
2022-10-31T11:28:12.663Z,60.42
2022-10-31T11:29:12.580Z,61.55
2022-10-31T11:30:12.574Z,61.71
2022-10-31T11:31:12.551Z,50.60
2022-10-31T11:32:12.598Z,60.75
2022-10-31T11:33:12.497Z,66.39
2022-10-31T11:34:12.553Z,63.00
2022-10-31T11:35:12.494Z,60.26
2022-10-31T11:36:12.495Z,64.94
2022-10-31T11:37:12.484Z,63.97
2022-10-31T11:38:12.463Z,61.71
2022-10-31T11:39:12.500Z,62.84
2022-10-31T11:40:12.470Z,59.14
2022-10-31T11:41:12.472Z,62.68
2022-10-31T11:42:12.475Z,56.72
2022-10-31T11:43:12.472Z,62.68
2022-10-31T11:44:12.444Z,51.72
2022-10-31T11:45:12.468Z,60.59
2022-10-31T11:46:12.442Z,58.17
2022-10-31T11:47:12.445Z,66.39
2022-10-31T11:48:12.424Z,64.13
2022-10-31T11:49:12.414Z,53.50
2022-10-31T11:50:13.417Z,62.20
2022-10-31T11:51:12.432Z,65.42
2022-10-31T11:52:12.430Z,64.45
2022-10-31T11:53:12.411Z,56.72
2022-10-31T11:54:12.382Z,64.45
2022-10-31T11:55:12.740Z,49.79
2022-10-31T11:56:12.514Z,61.71
2022-10-31T11:57:12.403Z,53.82
2022-10-31T11:58:12.384Z,57.52
2022-10-31T11:59:12.364Z,66.55
2022-10-31T12:00:12.426Z,55.91
2022-10-31T12:01:12.419Z,53.98
2022-10-31T12:02:13.639Z,61.55
2022-10-31T12:03:12.376Z,63.81
2022-10-31T12:04:12.328Z,59.46
2022-10-31T12:05:14.246Z,68.16
2022-10-31T12:06:12.316Z,64.61
2022-10-31T12:07:12.341Z,64.78
2022-10-31T12:08:13.272Z,60.26
2022-10-31T12:09:12.304Z,62.36
2022-10-31T12:10:12.320Z,60.75
2022-10-31T12:11:12.287Z,55.27
2022-10-31T12:12:12.332Z,64.13
2022-10-31T12:13:12.280Z,57.69
2022-10-31T12:14:12.308Z,67.19
2022-10-31T12:15:12.302Z,58.65
2022-10-31T12:16:12.284Z,58.17
2022-10-31T12:17:12.264Z,59.46
2022-10-31T12:18:12.274Z,63.00
2022-10-31T12:19:12.253Z,56.07
2022-10-31T12:20:12.218Z,61.87
2022-10-31T12:21:13.696Z,54.79
2022-10-31T12:22:12.213Z,58.65
2022-10-31T12:23:12.249Z,57.85
2022-10-31T12:24:12.303Z,65.90
2022-10-31T12:25:12.227Z,63.97
2022-10-31T12:26:12.242Z,61.23
2022-10-31T12:27:12.184Z,58.17
2022-10-31T12:28:12.292Z,63.97
2022-10-31T12:29:12.836Z,62.68
2022-10-31T12:30:12.185Z,62.68
2022-10-31T12:31:12.212Z,56.72
2022-10-31T12:32:12.164Z,58.97
2022-10-31T12:33:12.158Z,62.20
2022-10-31T12:34:12.172Z,66.87
2022-10-31T12:35:12.155Z,65.74
2022-10-31T12:36:15.225Z,61.23
2022-10-31T12:37:12.170Z,63.97
2022-10-31T12:38:12.159Z,62.68
2022-10-31T12:39:12.120Z,65.58
2022-10-31T12:40:12.142Z,55.43
2022-10-31T12:41:12.118Z,62.20
2022-10-31T12:42:12.151Z,62.68
2022-10-31T12:43:12.103Z,59.14
2022-10-31T12:44:12.092Z,68.48
2022-10-31T12:45:12.090Z,62.20
2022-10-31T12:46:12.107Z,58.97
2022-10-31T12:47:12.792Z,58.65
2022-10-31T12:48:12.075Z,59.46
2022-10-31T12:49:12.140Z,62.04
2022-10-31T12:50:12.071Z,54.14
2022-10-31T12:51:12.155Z,67.03
2022-10-31T12:52:12.031Z,52.21
2022-10-31T12:53:13.130Z,50.27
2022-10-31T12:54:12.027Z,63.33